Terminal Aerodrome Forecast
Issued by NWS Duluth, MN

Home | Current Version | Previous Version | Text Only | Print | Product List | Glossary On
Versions: 1 2 3 4 5 6 7 8 9 10 11 12 13 14 15 16 17 18 19
000
FTUS43 KDLH 021359 AAC
TAFDLH
TAF AMD
KDLH 021359Z 0214/0312 32004KT P6SM VCTS FEW020 SCT040CB OVC080
      TEMPO 0214/0216 33009G15KT -TSRA SCT020 BKN040CB OVC080
     FM021600 33008KT P6SM VCSH SCT025 SCT040 BKN080
     FM021900 33012G20KT P6SM SCT035 BKN050
     FM030100 32007KT P6SM SCT100=

USA.gov is the U.S. government's official web portal to all federal, state and local government web resources and services.